createdAt,value
2023-04-18T00:00:28.531Z,26.92
2023-04-18T00:01:28.566Z,26.84
2023-04-18T00:02:28.774Z,26.26
2023-04-18T00:03:28.876Z,26.37
2023-04-18T00:04:28.837Z,25.62
2023-04-18T00:05:28.889Z,26.02
2023-04-18T00:06:28.836Z,27.05
2023-04-18T00:07:28.878Z,26.36
2023-04-18T00:08:28.927Z,26.03
2023-04-18T00:09:29.010Z,25.94
2023-04-18T00:10:29.015Z,26.38
2023-04-18T00:11:29.060Z,26.50
2023-04-18T00:12:29.944Z,26.34
2023-04-18T00:13:29.157Z,26.13
2023-04-18T00:14:29.209Z,25.16
2023-04-18T00:15:29.309Z,26.03
2023-04-18T00:16:29.402Z,26.95
2023-04-18T00:17:29.363Z,25.61
2023-04-18T00:18:29.412Z,26.44
2023-04-18T00:19:29.490Z,25.40
2023-04-18T00:20:29.534Z,25.96
2023-04-18T00:21:29.581Z,26.14
2023-04-18T00:22:29.646Z,26.28
2023-04-18T00:23:29.724Z,26.07
2023-04-18T00:24:29.806Z,26.02
2023-04-18T00:25:29.860Z,26.38
2023-04-18T00:26:29.914Z,26.71
2023-04-18T00:27:29.945Z,26.58
2023-04-18T00:28:30.041Z,25.01
2023-04-18T00:29:30.035Z,25.47
2023-04-18T00:30:30.093Z,25.00
2023-04-18T00:31:30.208Z,25.57
2023-04-18T00:32:30.283Z,26.11
2023-04-18T00:33:30.313Z,25.40
2023-04-18T00:34:30.349Z,26.31
2023-04-18T00:35:30.418Z,25.56
2023-04-18T00:36:30.529Z,26.38
2023-04-18T00:37:30.529Z,26.90
2023-04-18T00:38:30.612Z,26.14
2023-04-18T00:39:30.678Z,25.81
2023-04-18T00:40:30.704Z,27.15
2023-04-18T00:41:30.789Z,26.70
2023-04-18T00:42:30.800Z,26.25
2023-04-18T00:43:30.918Z,25.28
2023-04-18T00:44:30.944Z,26.67
2023-04-18T00:45:30.999Z,26.38
2023-04-18T00:46:31.124Z,25.42
2023-04-18T00:47:31.176Z,25.48
2023-04-18T00:48:31.156Z,25.47
2023-04-18T00:49:31.227Z,25.85
2023-04-18T00:50:31.258Z,26.16
2023-04-18T00:51:31.330Z,26.11
2023-04-18T00:52:31.382Z,25.29
2023-04-18T00:53:31.462Z,25.63
2023-04-18T00:54:31.611Z,26.16
2023-04-18T00:55:31.586Z,25.09
2023-04-18T00:56:31.617Z,26.24
2023-04-18T00:57:31.693Z,25.91
2023-04-18T00:58:31.740Z,25.62
2023-04-18T00:59:31.816Z,25.60
2023-04-18T01:00:31.877Z,25.39
2023-04-18T01:01:31.978Z,25.32
2023-04-18T01:02:32.112Z,27.14
2023-04-18T01:03:32.217Z,26.06
2023-04-18T01:04:32.251Z,25.66
2023-04-18T01:05:32.165Z,25.59
2023-04-18T01:06:32.236Z,25.68
2023-04-18T01:07:32.264Z,25.89
2023-04-18T01:08:32.306Z,25.57
2023-04-18T01:09:32.423Z,25.99
2023-04-18T01:10:32.473Z,25.57
2023-04-18T01:11:32.520Z,25.31
2023-04-18T01:12:32.563Z,25.50
2023-04-18T01:13:32.643Z,25.09
2023-04-18T01:14:32.711Z,25.54
2023-04-18T01:15:32.744Z,25.83
2023-04-18T01:16:32.893Z,25.89
2023-04-18T01:17:32.902Z,26.11
2023-04-18T01:18:32.904Z,25.99
2023-04-18T01:19:32.979Z,26.41
2023-04-18T01:20:33.052Z,26.37
2023-04-18T01:21:33.083Z,25.83
2023-04-18T01:22:33.162Z,26.94
2023-04-18T01:23:33.210Z,26.71
2023-04-18T01:24:33.288Z,26.45
2023-04-18T01:25:33.325Z,26.84
2023-04-18T01:26:33.399Z,27.37
2023-04-18T01:27:33.453Z,26.46
2023-04-18T01:28:33.514Z,26.67
2023-04-18T01:29:33.568Z,27.72
2023-04-18T01:30:33.630Z,26.88
2023-04-18T01:31:33.710Z,26.66
2023-04-18T01:32:33.745Z,27.26
2023-04-18T01:33:33.806Z,25.94
2023-04-18T01:34:33.859Z,26.32
2023-04-18T01:35:33.908Z,25.46
2023-04-18T01:36:33.990Z,25.14
2023-04-18T01:37:34.065Z,25.84
2023-04-18T01:38:34.123Z,25.75
2023-04-18T01:39:34.176Z,25.53
2023-04-18T01:40:34.232Z,26.22
2023-04-18T01:41:34.267Z,25.74
2023-04-18T01:42:34.324Z,25.77
2023-04-18T01:43:34.386Z,25.45
2023-04-18T01:44:34.433Z,25.65
2023-04-18T01:45:34.487Z,25.70
2023-04-18T01:46:34.580Z,25.35
2023-04-18T01:47:34.657Z,26.36
2023-04-18T01:48:34.678Z,25.24
2023-04-18T01:49:34.739Z,26.23
2023-04-18T01:50:34.763Z,25.94
2023-04-18T01:51:34.967Z,26.77
2023-04-18T01:52:34.913Z,27.76
2023-04-18T01:53:34.967Z,25.85
2023-04-18T01:54:35.051Z,26.04
2023-04-18T01:55:35.087Z,25.69
2023-04-18T01:56:35.146Z,25.89
2023-04-18T01:57:35.215Z,26.32
2023-04-18T01:58:35.261Z,26.05
2023-04-18T01:59:35.312Z,26.60
2023-04-18T02:00:35.415Z,27.92
2023-04-18T02:01:35.423Z,27.06
2023-04-18T02:02:35.560Z,26.37
2023-04-18T02:03:35.749Z,25.72
2023-04-18T02:04:35.629Z,25.48
2023-04-18T02:05:35.664Z,25.95
2023-04-18T02:06:37.490Z,27.10
2023-04-18T02:07:35.795Z,26.31
2023-04-18T02:08:36.081Z,25.84
2023-04-18T02:09:35.935Z,25.31
2023-04-18T02:10:35.963Z,25.34
2023-04-18T02:11:36.031Z,25.35
2023-04-18T02:12:36.123Z,25.00
2023-04-18T02:13:36.141Z,26.16
2023-04-18T02:14:36.212Z,25.02
2023-04-18T02:15:36.271Z,25.55
2023-04-18T02:16:36.300Z,26.25
2023-04-18T02:17:36.439Z,26.49
2023-04-18T02:18:36.409Z,26.32
2023-04-18T02:19:36.478Z,25.82
2023-04-18T02:20:36.578Z,26.54
2023-04-18T02:21:36.573Z,27.11
2023-04-18T02:22:36.595Z,26.28
2023-04-18T02:23:36.691Z,26.52
2023-04-18T02:24:36.757Z,26.05
2023-04-18T02:25:36.802Z,26.19
2023-04-18T02:26:36.830Z,26.12
2023-04-18T02:27:36.901Z,25.99
2023-04-18T02:28:36.971Z,27.39
2023-04-18T02:29:37.019Z,26.54
2023-04-18T02:30:37.093Z,27.06
2023-04-18T02:31:37.167Z,26.28
2023-04-18T02:32:37.207Z,26.12
2023-04-18T02:33:37.221Z,25.92
2023-04-18T02:34:37.315Z,25.33
2023-04-18T02:35:37.374Z,25.04
2023-04-18T02:36:37.425Z,25.58
2023-04-18T02:37:37.469Z,26.87
2023-04-18T02:38:37.530Z,26.28
2023-04-18T02:39:37.599Z,26.04
2023-04-18T02:40:37.645Z,26.25
2023-04-18T02:41:37.721Z,25.31
2023-04-18T02:42:37.751Z,25.77
2023-04-18T02:43:37.792Z,26.05
2023-04-18T02:44:37.818Z,25.74
2023-04-18T02:45:37.933Z,25.58
2023-04-18T02:46:37.958Z,26.69
2023-04-18T02:47:51.315Z,25.55
2023-04-18T02:48:38.998Z,25.67
2023-04-18T02:49:37.976Z,25.84
2023-04-18T02:50:37.994Z,26.16
2023-04-18T02:51:37.988Z,26.13
2023-04-18T02:52:37.965Z,25.61
2023-04-18T02:53:37.940Z,25.93
2023-04-18T02:54:37.987Z,26.11
2023-04-18T02:55:37.958Z,25.43
2023-04-18T02:56:37.993Z,25.23
2023-04-18T02:57:38.067Z,25.43
2023-04-18T02:58:38.151Z,26.09
2023-04-18T02:59:38.224Z,25.67
2023-04-18T03:00:38.276Z,26.21
2023-04-18T03:01:38.369Z,25.43
2023-04-18T03:02:38.450Z,25.89
2023-04-18T03:03:38.454Z,25.99
2023-04-18T03:04:38.604Z,26.52
2023-04-18T03:05:38.583Z,26.61
2023-04-18T03:06:38.626Z,26.74
2023-04-18T03:07:38.671Z,25.63
2023-04-18T03:08:38.751Z,25.61
2023-04-18T03:09:38.830Z,26.46
2023-04-18T03:10:38.888Z,25.89
2023-04-18T03:11:38.948Z,26.20
2023-04-18T03:12:38.980Z,25.09
2023-04-18T03:13:39.079Z,25.68
2023-04-18T03:14:39.135Z,25.20
2023-04-18T03:15:39.226Z,25.60
2023-04-18T03:16:39.245Z,25.43
2023-04-18T03:17:39.393Z,26.51
2023-04-18T03:18:39.356Z,25.83
2023-04-18T03:19:39.442Z,26.72
2023-04-18T03:20:39.480Z,27.06
2023-04-18T03:21:39.584Z,25.79
2023-04-18T03:22:39.699Z,25.87
2023-04-18T03:23:39.670Z,26.69
2023-04-18T03:24:39.754Z,25.77
2023-04-18T03:25:39.830Z,25.55
2023-04-18T03:26:39.872Z,25.56
2023-04-18T03:27:39.932Z,25.68
2023-04-18T03:28:40.019Z,25.64
2023-04-18T03:29:40.097Z,25.73
2023-04-18T03:30:40.102Z,26.40
2023-04-18T03:31:40.190Z,25.75
2023-04-18T03:32:40.267Z,25.86
2023-04-18T03:33:40.322Z,26.05
2023-04-18T03:34:40.415Z,27.15
2023-04-18T03:35:40.444Z,25.95
2023-04-18T03:36:40.491Z,25.64
2023-04-18T03:37:40.569Z,25.00
2023-04-18T03:38:40.641Z,25.83
2023-04-18T03:39:40.704Z,25.82
2023-04-18T03:40:40.754Z,26.06
2023-04-18T03:41:40.811Z,25.43
2023-04-18T03:42:40.882Z,26.33
2023-04-18T03:43:40.970Z,25.26
2023-04-18T03:44:41.013Z,25.97
2023-04-18T03:45:41.051Z,25.02
2023-04-18T03:46:41.236Z,25.06
2023-04-18T03:47:41.231Z,25.94
2023-04-18T03:48:41.260Z,25.79
2023-04-18T03:49:41.315Z,25.96
2023-04-18T03:50:41.382Z,26.63
2023-04-18T03:51:41.468Z,26.32
2023-04-18T03:52:41.511Z,25.75
2023-04-18T03:53:41.571Z,25.80
2023-04-18T03:54:41.612Z,25.31
2023-04-18T03:55:41.761Z,26.19
2023-04-18T03:56:41.783Z,26.67
2023-04-18T03:57:41.816Z,26.78
2023-04-18T03:58:41.838Z,25.46
2023-04-18T03:59:41.938Z,25.75
2023-04-18T04:00:41.989Z,26.19
2023-04-18T04:01:42.110Z,25.55
2023-04-18T04:02:42.196Z,26.19
2023-04-18T04:03:42.385Z,26.95
2023-04-18T04:04:42.286Z,25.42
2023-04-18T04:05:42.312Z,26.09
2023-04-18T04:06:42.364Z,26.86
2023-04-18T04:07:42.435Z,25.35
2023-04-18T04:08:42.485Z,25.68
2023-04-18T04:09:42.558Z,26.98
2023-04-18T04:10:42.615Z,25.09
2023-04-18T04:11:42.671Z,26.46
2023-04-18T04:12:42.753Z,27.65
2023-04-18T04:13:42.822Z,26.44
2023-04-18T04:14:42.872Z,26.76
2023-04-18T04:15:42.903Z,28.08
2023-04-18T04:16:43.026Z,26.74
2023-04-18T04:17:43.106Z,25.34
2023-04-18T04:18:43.114Z,26.70
2023-04-18T04:19:43.163Z,27.10
2023-04-18T04:20:43.250Z,27.24
2023-04-18T04:21:43.283Z,26.24
2023-04-18T04:22:43.353Z,27.33
2023-04-18T04:23:43.383Z,27.40
2023-04-18T04:24:43.464Z,27.67
2023-04-18T04:25:43.569Z,26.52
2023-04-18T04:26:43.631Z,28.59
2023-04-18T04:27:43.652Z,26.19
2023-04-18T04:28:43.711Z,27.44
2023-04-18T04:29:43.774Z,26.13
2023-04-18T04:30:43.841Z,26.78
2023-04-18T04:31:43.934Z,27.92
2023-04-18T04:32:43.984Z,25.86
2023-04-18T04:33:43.997Z,26.20
2023-04-18T04:34:44.087Z,25.93
2023-04-18T04:35:44.162Z,25.77
2023-04-18T04:36:44.195Z,25.86
2023-04-18T04:37:44.312Z,25.74
2023-04-18T04:38:44.368Z,26.56
2023-04-18T04:39:44.388Z,26.78
2023-04-18T04:40:44.451Z,26.59
2023-04-18T04:41:44.518Z,27.54
2023-04-18T04:42:44.565Z,25.97
2023-04-18T04:43:44.652Z,26.34
2023-04-18T04:44:44.735Z,26.92
2023-04-18T04:45:44.822Z,26.38
2023-04-18T04:46:44.846Z,27.27
2023-04-18T04:47:44.985Z,25.53
2023-04-18T04:48:44.966Z,25.52
2023-04-18T04:49:45.056Z,25.17
2023-04-18T04:50:45.106Z,26.38
2023-04-18T04:51:45.154Z,25.71
2023-04-18T04:52:45.213Z,25.27
2023-04-18T04:53:45.247Z,25.16
2023-04-18T04:54:45.358Z,25.25
2023-04-18T04:55:45.409Z,26.28
2023-04-18T04:56:45.470Z,27.00
2023-04-18T04:57:45.582Z,28.37
2023-04-18T04:58:45.593Z,28.38
2023-04-18T04:59:45.674Z,28.38
2023-04-18T05:00:45.772Z,28.74
2023-04-18T05:01:45.875Z,28.33
2023-04-18T05:02:46.039Z,28.90
2023-04-18T05:03:46.017Z,29.20
2023-04-18T05:04:45.954Z,27.60
2023-04-18T05:05:46.020Z,29.33
2023-04-18T05:06:46.046Z,27.07
2023-04-18T05:07:46.124Z,26.90
2023-04-18T05:08:46.167Z,25.61
2023-04-18T05:09:46.215Z,25.40
2023-04-18T05:10:46.273Z,25.54
2023-04-18T05:11:46.295Z,26.17
2023-04-18T05:12:46.413Z,27.20
2023-04-18T05:13:46.541Z,28.84
2023-04-18T05:14:46.531Z,28.98
2023-04-18T05:15:46.565Z,28.25
2023-04-18T05:16:46.673Z,27.56
2023-04-18T05:17:46.748Z,27.26
2023-04-18T05:18:46.746Z,28.20
2023-04-18T05:19:46.826Z,29.08
2023-04-18T05:20:46.892Z,28.77
2023-04-18T05:21:46.968Z,27.86
2023-04-18T05:22:47.034Z,28.77
2023-04-18T05:23:47.033Z,28.90
2023-04-18T05:24:47.105Z,29.63
2023-04-18T05:25:47.164Z,29.30
2023-04-18T05:26:47.228Z,29.10
2023-04-18T05:27:47.327Z,29.21
2023-04-18T05:28:47.325Z,29.98
2023-04-18T05:29:47.563Z,28.61
2023-04-18T05:30:47.514Z,28.70
2023-04-18T05:31:47.515Z,28.79
2023-04-18T05:32:47.613Z,28.66
2023-04-18T05:33:47.668Z,29.58
2023-04-18T05:34:47.706Z,29.27
2023-04-18T05:35:47.762Z,28.80
2023-04-18T05:36:47.846Z,27.85
2023-04-18T05:37:47.908Z,27.53
2023-04-18T05:38:47.971Z,27.17
2023-04-18T05:39:48.068Z,26.30
2023-04-18T05:40:48.099Z,26.86
2023-04-18T05:41:48.169Z,26.92
2023-04-18T05:42:48.254Z,28.64
2023-04-18T05:44:01.901Z,32.95
2023-04-18T05:44:49.281Z,33.21
2023-04-18T05:45:48.272Z,34.07
2023-04-18T05:46:48.351Z,37.82
2023-04-18T05:47:48.367Z,44.64
2023-04-18T05:48:48.231Z,56.69
2023-04-18T05:49:48.249Z,62.97
2023-04-18T05:50:48.253Z,66.06
2023-04-18T05:51:48.239Z,71.37
2023-04-18T05:52:48.210Z,76.51
2023-04-18T05:53:48.226Z,77.65
2023-04-18T05:54:48.345Z,86.98
2023-04-18T05:55:48.340Z,89.21
2023-04-18T05:56:48.366Z,95.56
2023-04-18T05:57:48.383Z,101.34
2023-04-18T05:58:48.430Z,113.93
2023-04-18T05:59:48.473Z,130.24
2023-04-18T06:00:48.519Z,144.24
2023-04-18T06:01:48.543Z,149.71
2023-04-18T06:02:48.641Z,148.54
2023-04-18T06:03:48.849Z,157.44
2023-04-18T06:04:48.776Z,164.59
2023-04-18T06:05:48.718Z,192.14
2023-04-18T06:06:48.664Z,190.90
2023-04-18T06:07:48.730Z,184.94
2023-04-18T06:08:48.730Z,183.69
2023-04-18T06:09:48.738Z,181.17
2023-04-18T06:10:48.713Z,184.00
2023-04-18T06:11:48.749Z,180.71
2023-04-18T06:12:48.737Z,183.29
2023-04-18T06:13:48.733Z,178.44
2023-04-18T06:14:48.782Z,177.61
2023-04-18T06:15:48.790Z,167.03
2023-04-18T06:16:48.805Z,159.43
2023-04-18T06:17:48.824Z,158.48
2023-04-18T06:18:48.845Z,148.74
2023-04-18T06:19:48.855Z,142.12
2023-04-18T06:20:48.862Z,139.53
2023-04-18T06:21:48.865Z,136.98
2023-04-18T06:22:48.951Z,134.15
2023-04-18T06:23:48.912Z,126.64
2023-04-18T06:24:48.942Z,120.45
2023-04-18T06:25:48.955Z,121.48
2023-04-18T06:26:48.986Z,121.23
2023-04-18T06:27:49.012Z,115.57
2023-04-18T06:28:48.993Z,113.44
2023-04-18T06:29:49.033Z,109.70
2023-04-18T06:30:49.102Z,108.64
2023-04-18T06:31:49.052Z,111.36
2023-04-18T06:32:49.117Z,115.70
2023-04-18T06:33:49.079Z,118.11
2023-04-18T06:34:49.103Z,127.11
2023-04-18T06:35:49.082Z,129.36
2023-04-18T06:36:49.061Z,128.63
2023-04-18T06:37:49.055Z,132.32
2023-04-18T06:38:49.067Z,136.45
2023-04-18T06:39:49.100Z,141.60
2023-04-18T06:40:49.092Z,142.92
2023-04-18T06:41:49.123Z,149.60
2023-04-18T06:42:49.188Z,153.01
2023-04-18T06:44:02.140Z,158.94
2023-04-18T06:44:50.223Z,159.21
2023-04-18T06:45:49.643Z,160.10
2023-04-18T06:46:49.232Z,163.71
2023-04-18T06:47:49.258Z,172.44
2023-04-18T06:48:51.445Z,184.17
2023-04-18T06:49:49.242Z,189.16
2023-04-18T06:50:49.214Z,190.10
2023-04-18T06:51:49.232Z,191.60
2023-04-18T06:52:49.242Z,197.26
2023-04-18T06:53:49.335Z,205.63
2023-04-18T06:54:49.459Z,210.17
2023-04-18T06:55:49.424Z,214.68
2023-04-18T06:56:49.477Z,214.67
2023-04-18T06:57:49.553Z,212.98
2023-04-18T06:58:49.583Z,214.95
2023-04-18T06:59:49.671Z,217.56
2023-04-18T07:00:49.717Z,218.78
2023-04-18T07:01:49.763Z,224.11
2023-04-18T07:02:49.892Z,222.42
2023-04-18T07:03:49.916Z,228.96
2023-04-18T07:04:49.882Z,223.03
2023-04-18T07:05:50.093Z,227.85
2023-04-18T07:06:49.994Z,228.76
2023-04-18T07:07:50.072Z,232.77
2023-04-18T07:08:50.089Z,237.75
2023-04-18T07:09:50.127Z,238.35
2023-04-18T07:10:50.422Z,237.75
2023-04-18T07:11:50.177Z,239.07
2023-04-18T07:12:50.227Z,241.52
2023-04-18T07:13:50.267Z,243.63
2023-04-18T07:14:50.313Z,246.16
2023-04-18T07:15:50.357Z,247.55
2023-04-18T07:16:50.460Z,248.56
2023-04-18T07:17:50.435Z,250.00
2023-04-18T07:18:50.431Z,250.00
2023-04-18T07:19:50.483Z,248.13
2023-04-18T07:20:50.517Z,249.74
2023-04-18T07:21:50.538Z,250.00
2023-04-18T07:22:50.583Z,249.58
2023-04-18T07:23:50.598Z,248.80
2023-04-18T07:24:50.644Z,249.30
2023-04-18T07:25:50.727Z,249.71
2023-04-18T07:26:52.027Z,249.57
2023-04-18T07:27:50.729Z,248.79
2023-04-18T07:28:50.747Z,249.48
2023-04-18T07:29:50.784Z,248.90
2023-04-18T07:30:50.835Z,248.89
2023-04-18T07:31:50.819Z,249.12
2023-04-18T07:32:50.912Z,249.09
2023-04-18T07:33:50.888Z,250.00
2023-04-18T07:34:50.900Z,249.55
2023-04-18T07:35:50.916Z,248.02
2023-04-18T07:36:50.939Z,248.06
2023-04-18T07:37:50.957Z,250.00
2023-04-18T07:38:50.948Z,249.51
2023-04-18T07:39:51.040Z,250.11
2023-04-18T07:40:51.107Z,249.93
2023-04-18T07:41:51.035Z,247.72
2023-04-18T07:42:51.033Z,247.67
2023-04-18T07:43:51.056Z,246.90
2023-04-18T07:44:51.068Z,245.93
2023-04-18T07:45:51.192Z,246.88
2023-04-18T07:46:51.086Z,248.01
2023-04-18T07:47:51.137Z,250.00
2023-04-18T07:48:51.095Z,245.99
2023-04-18T07:49:51.089Z,197.92
2023-04-18T07:50:51.117Z,160.67
2023-04-18T07:51:51.122Z,136.48
2023-04-18T07:52:51.149Z,123.04
2023-04-18T07:53:51.240Z,110.32
2023-04-18T07:54:51.292Z,111.28
2023-04-18T07:55:51.345Z,104.74
2023-04-18T07:56:51.410Z,116.25
2023-04-18T07:57:51.482Z,134.17
2023-04-18T07:58:51.624Z,159.01
2023-04-18T07:59:51.562Z,163.45
2023-04-18T08:00:51.602Z,162.15
2023-04-18T08:01:51.666Z,168.44
2023-04-18T08:02:51.742Z,171.74
2023-04-18T08:03:51.799Z,172.75
2023-04-18T08:04:51.809Z,174.68
2023-04-18T08:05:51.686Z,177.58
2023-04-18T08:06:51.729Z,178.41
2023-04-18T08:07:51.687Z,183.30
2023-04-18T08:08:51.753Z,185.88
2023-04-18T08:09:51.733Z,191.83
2023-04-18T08:10:51.788Z,192.64
2023-04-18T08:11:51.813Z,195.71
2023-04-18T08:12:51.897Z,199.53
2023-04-18T08:13:51.938Z,204.02
2023-04-18T08:14:52.124Z,206.55
2023-04-18T08:15:52.103Z,218.67
2023-04-18T08:16:52.148Z,229.02
2023-04-18T08:17:52.237Z,232.79
2023-04-18T08:18:52.244Z,232.36
2023-04-18T08:19:52.304Z,232.49
2023-04-18T08:20:52.353Z,234.04
2023-04-18T08:21:52.365Z,236.23
2023-04-18T08:23:06.103Z,237.54
2023-04-18T08:23:53.430Z,237.60
2023-04-18T08:25:04.370Z,237.52
2023-04-18T08:25:53.449Z,237.71
2023-04-18T08:26:52.389Z,238.19
2023-04-18T08:27:52.385Z,239.15
2023-04-18T08:28:52.388Z,239.28
2023-04-18T08:29:52.383Z,245.58
2023-04-18T08:30:52.593Z,247.28
2023-04-18T08:31:52.421Z,247.65
2023-04-18T08:32:52.419Z,248.24
2023-04-18T08:33:52.349Z,247.52
2023-04-18T08:34:52.348Z,250.00
2023-04-18T08:35:52.599Z,248.33
2023-04-18T08:36:52.314Z,250.00
2023-04-18T08:37:52.328Z,241.83
2023-04-18T08:38:52.340Z,237.36
2023-04-18T08:39:52.305Z,236.36
2023-04-18T08:40:52.297Z,235.78
2023-04-18T08:41:52.305Z,234.38
2023-04-18T08:42:52.454Z,235.37
2023-04-18T08:43:52.375Z,233.52
2023-04-18T08:44:52.365Z,233.86
2023-04-18T08:45:52.446Z,232.80
2023-04-18T08:46:52.559Z,233.02
2023-04-18T08:47:52.557Z,232.98
2023-04-18T08:48:52.543Z,236.20
2023-04-18T08:49:52.538Z,236.02
2023-04-18T08:50:52.621Z,234.38
2023-04-18T08:51:52.629Z,233.03
2023-04-18T08:52:52.646Z,226.87
2023-04-18T08:53:52.694Z,191.90
2023-04-18T08:54:52.715Z,165.90
2023-04-18T08:55:52.806Z,156.44
2023-04-18T08:56:52.832Z,146.06
2023-04-18T08:57:52.870Z,132.49
2023-04-18T08:58:53.020Z,120.00
2023-04-18T08:59:53.022Z,104.73
2023-04-18T09:00:53.005Z,104.11
2023-04-18T09:01:52.988Z,85.43
2023-04-18T09:02:53.229Z,74.23
2023-04-18T09:03:52.982Z,68.95
2023-04-18T09:04:52.930Z,80.69
2023-04-18T09:05:53.164Z,101.03
2023-04-18T09:06:52.939Z,113.91
2023-04-18T09:07:52.967Z,119.48
2023-04-18T09:08:52.914Z,120.03
2023-04-18T09:09:52.945Z,116.91
2023-04-18T09:10:52.953Z,112.86
2023-04-18T09:11:53.045Z,115.64
2023-04-18T09:12:53.070Z,113.60
2023-04-18T09:13:53.067Z,117.24
2023-04-18T09:14:53.155Z,117.93
2023-04-18T09:15:53.210Z,119.12
2023-04-18T09:16:53.347Z,120.71
2023-04-18T09:17:53.400Z,122.63
2023-04-18T09:18:53.366Z,125.56
2023-04-18T09:19:53.465Z,119.32
2023-04-18T09:20:53.519Z,123.61
2023-04-18T09:21:53.578Z,123.22
2023-04-18T09:22:53.621Z,125.95
2023-04-18T09:23:53.799Z,127.01
2023-04-18T09:24:53.821Z,126.44
2023-04-18T09:25:54.164Z,125.36
2023-04-18T09:26:54.191Z,125.40
2023-04-18T09:27:53.910Z,125.39
2023-04-18T09:28:54.105Z,126.13
2023-04-18T09:29:55.791Z,128.87
2023-04-18T09:30:54.005Z,122.01
2023-04-18T09:31:54.140Z,124.76
2023-04-18T09:32:53.979Z,124.76
2023-04-18T09:33:54.007Z,124.60
2023-04-18T09:34:53.972Z,125.98
2023-04-18T09:35:53.945Z,146.34
2023-04-18T09:36:54.146Z,134.85
2023-04-18T09:37:54.158Z,129.58
2023-04-18T09:38:56.266Z,128.22
2023-04-18T09:39:53.959Z,128.41
2023-04-18T09:40:53.922Z,124.12
2023-04-18T09:41:54.127Z,121.67
2023-04-18T09:42:53.942Z,124.16
2023-04-18T09:43:53.903Z,124.69
2023-04-18T09:44:56.340Z,125.36
2023-04-18T09:45:53.913Z,125.56
2023-04-18T09:46:53.893Z,116.43
2023-04-18T09:47:53.955Z,101.64
2023-04-18T09:48:53.883Z,87.11
2023-04-18T09:49:53.916Z,68.70
2023-04-18T09:50:53.868Z,54.99
2023-04-18T09:51:54.141Z,55.67
2023-04-18T09:52:53.849Z,42.23
2023-04-18T09:53:53.896Z,38.11
2023-04-18T09:54:53.824Z,33.00
2023-04-18T09:55:56.168Z,34.01
2023-04-18T09:56:53.854Z,34.18
2023-04-18T09:57:53.812Z,28.72
2023-04-18T09:58:53.808Z,13.41
2023-04-18T09:59:53.792Z,10.83
2023-04-18T10:00:53.820Z,13.30
2023-04-18T10:01:53.829Z,24.44
2023-04-18T10:02:53.864Z,25.00
2023-04-18T10:03:53.850Z,23.98
2023-04-18T10:04:53.849Z,34.62
2023-04-18T10:05:54.832Z,40.39
2023-04-18T10:06:53.833Z,35.56
2023-04-18T10:07:53.810Z,31.55
2023-04-18T10:08:53.728Z,31.10
2023-04-18T10:09:53.749Z,28.85
2023-04-18T10:10:53.724Z,24.93
2023-04-18T10:11:54.145Z,28.53
2023-04-18T10:12:53.725Z,27.11
2023-04-18T10:13:53.693Z,27.62
2023-04-18T10:14:53.673Z,28.78
2023-04-18T10:15:53.726Z,29.23
2023-04-18T10:16:53.686Z,27.49
2023-04-18T10:18:03.616Z,26.86
2023-04-18T10:18:54.669Z,26.91
2023-04-18T10:19:53.687Z,21.44
2023-04-18T10:20:53.631Z,22.30
2023-04-18T10:21:53.665Z,20.46
2023-04-18T10:22:53.771Z,19.75
2023-04-18T10:23:53.620Z,27.24
2023-04-18T10:24:53.903Z,29.65
2023-04-18T10:25:53.611Z,25.65
2023-04-18T10:26:53.606Z,28.94
2023-04-18T10:27:53.583Z,25.00
2023-04-18T10:28:54.011Z,26.52
2023-04-18T10:29:53.616Z,26.63
2023-04-18T10:30:53.573Z,30.09
2023-04-18T10:31:53.627Z,34.37
2023-04-18T10:32:53.642Z,29.78
2023-04-18T10:34:04.020Z,27.88
2023-04-18T10:34:54.625Z,26.31
2023-04-18T10:35:53.539Z,28.71
2023-04-18T10:36:53.646Z,33.08
2023-04-18T10:37:53.533Z,44.53
2023-04-18T10:38:53.587Z,64.36
2023-04-18T10:39:53.562Z,74.65
2023-04-18T10:40:53.507Z,82.61
2023-04-18T10:41:53.548Z,87.47
2023-04-18T10:42:53.519Z,99.01
2023-04-18T10:43:53.474Z,109.88
2023-04-18T10:44:53.491Z,115.34
2023-04-18T10:45:53.498Z,119.41
2023-04-18T10:46:53.533Z,122.23
2023-04-18T10:47:53.787Z,126.83
2023-04-18T10:48:53.505Z,131.35
2023-04-18T10:49:53.508Z,135.82
2023-04-18T10:50:53.481Z,142.73
2023-04-18T10:51:53.471Z,147.86
2023-04-18T10:52:53.465Z,150.55
2023-04-18T10:53:53.525Z,154.19
2023-04-18T10:54:53.624Z,159.33
2023-04-18T10:55:53.608Z,163.37
2023-04-18T10:56:53.676Z,166.22
2023-04-18T10:57:53.698Z,169.59
2023-04-18T10:58:53.782Z,172.08
2023-04-18T10:59:53.777Z,176.09
2023-04-18T11:00:53.887Z,179.25
2023-04-18T11:01:53.869Z,182.58
2023-04-18T11:02:54.177Z,185.80
2023-04-18T11:03:54.075Z,187.12
2023-04-18T11:04:53.951Z,190.82
2023-04-18T11:05:54.002Z,194.20
2023-04-18T11:06:54.028Z,196.66
2023-04-18T11:07:54.046Z,201.45
2023-04-18T11:08:54.090Z,204.54
2023-04-18T11:09:54.059Z,209.37
2023-04-18T11:10:54.092Z,211.70
2023-04-18T11:11:54.124Z,213.61
2023-04-18T11:12:54.160Z,213.34
2023-04-18T11:13:54.194Z,216.95
2023-04-18T11:14:54.251Z,219.19
2023-04-18T11:15:54.211Z,220.71
2023-04-18T11:16:54.349Z,221.97
2023-04-18T11:17:54.323Z,221.27
2023-04-18T11:18:54.331Z,223.05
2023-04-18T11:19:54.348Z,224.14
2023-04-18T11:20:54.352Z,228.56
2023-04-18T11:21:54.668Z,229.72
2023-04-18T11:22:54.380Z,231.02
2023-04-18T11:23:54.393Z,231.46
2023-04-18T11:24:54.384Z,233.35
2023-04-18T11:25:54.430Z,236.48
2023-04-18T11:26:54.407Z,237.79
2023-04-18T11:27:54.446Z,239.91
2023-04-18T11:28:54.465Z,241.31
2023-04-18T11:29:54.456Z,243.18
2023-04-18T11:30:54.462Z,245.37
2023-04-18T11:31:58.326Z,249.01
2023-04-18T11:32:54.527Z,249.10
2023-04-18T11:33:54.455Z,249.59
2023-04-18T11:34:54.466Z,250.06
2023-04-18T11:35:54.469Z,250.49
2023-04-18T11:36:54.459Z,250.42
2023-04-18T11:37:54.451Z,248.60
2023-04-18T11:38:54.427Z,247.89
2023-04-18T11:39:54.429Z,246.63
2023-04-18T11:40:54.438Z,244.48
2023-04-18T11:41:54.411Z,242.06
2023-04-18T11:42:54.432Z,240.74
2023-04-18T11:43:54.457Z,239.67
2023-04-18T11:44:54.398Z,240.05
2023-04-18T11:45:54.439Z,239.06
2023-04-18T11:46:54.387Z,236.93
2023-04-18T11:47:54.396Z,235.79
2023-04-18T11:48:54.386Z,235.48
2023-04-18T11:49:55.788Z,231.90
2023-04-18T11:50:54.583Z,226.26
2023-04-18T11:51:54.591Z,208.16
2023-04-18T11:52:54.620Z,185.40
2023-04-18T11:53:54.654Z,162.36
2023-04-18T11:54:54.709Z,152.81
2023-04-18T11:55:54.734Z,136.54
2023-04-18T11:56:54.786Z,131.77
2023-04-18T11:57:54.873Z,115.73
2023-04-18T11:58:55.046Z,104.61
2023-04-18T11:59:54.943Z,87.20
2023-04-18T12:00:54.935Z,86.61
2023-04-18T12:01:58.537Z,92.85
2023-04-18T12:02:55.086Z,106.49
2023-04-18T12:03:55.133Z,115.03
2023-04-18T12:04:55.350Z,115.65
2023-04-18T12:05:55.057Z,118.36
2023-04-18T12:06:55.044Z,118.69
2023-04-18T12:07:55.652Z,121.57
2023-04-18T12:08:54.956Z,128.24
2023-04-18T12:09:54.899Z,129.04
2023-04-18T12:10:54.898Z,129.08
2023-04-18T12:11:54.873Z,132.24
2023-04-18T12:12:54.887Z,132.99
2023-04-18T12:13:54.931Z,131.71
2023-04-18T12:14:54.873Z,132.01
2023-04-18T12:15:54.978Z,133.62
2023-04-18T12:16:54.878Z,133.87
2023-04-18T12:17:54.866Z,133.91
2023-04-18T12:18:54.854Z,133.46
2023-04-18T12:19:54.826Z,135.11
2023-04-18T12:20:54.852Z,136.62
2023-04-18T12:21:54.847Z,135.15
2023-04-18T12:22:54.809Z,136.00
2023-04-18T12:23:54.837Z,134.78
2023-04-18T12:24:54.782Z,135.99
2023-04-18T12:25:54.795Z,134.05
2023-04-18T12:26:54.811Z,136.48
2023-04-18T12:27:54.819Z,135.82
2023-04-18T12:28:54.895Z,136.00
2023-04-18T12:29:54.821Z,137.90
2023-04-18T12:30:55.022Z,136.83
2023-04-18T12:31:55.053Z,138.52
2023-04-18T12:32:54.999Z,137.64
2023-04-18T12:33:55.054Z,137.91
2023-04-18T12:34:55.138Z,137.93
2023-04-18T12:35:55.211Z,138.38
2023-04-18T12:36:55.263Z,138.85
2023-04-18T12:37:55.367Z,138.11
2023-04-18T12:38:55.395Z,138.83
2023-04-18T12:39:55.428Z,137.71
2023-04-18T12:40:55.510Z,138.71
2023-04-18T12:41:55.548Z,138.64